Time;durP1;ratioP1;P1;durP2;ratioP2;P2;SDS_P1;SDS_P2;PMS_P1;PMS_P2;Temp;Humidity;BMP_temperature;BMP_pressure;BME280_temperature;BME280_humidity;BME280_pressure;Samples;Min_cycle;Max_cycle;Signal;HPM_P1;HPM_P2
2023/01/26 00:00:04;;;;;;;24.10;15.60;;;8.40;83.10;;;;;;6298700;22;20035;-81
2023/01/26 00:02:29;;;;;;;24.88;15.43;;;8.40;83.10;;;;;;6292525;22;20014;-82
2023/01/26 00:04:55;;;;;;;25.33;15.80;;;8.40;83.20;;;;;;6292558;22;20353;-81
2023/01/26 00:07:20;;;;;;;23.77;15.40;;;8.50;83.20;;;;;;6292231;22;19996;-81
2023/01/26 00:09:46;;;;;;;24.77;15.63;;;8.40;83.10;;;;;;6292205;22;20006;-81
2023/01/26 00:12:11;;;;;;;23.33;15.20;;;8.40;83.10;;;;;;6293396;22;19999;-82
2023/01/26 00:14:49;;;;;;;23.92;15.35;;;8.40;83.10;;;;;;6293190;22;20085;-81
2023/01/26 00:17:24;;;;;;;24.60;16.27;;;8.40;83.10;;;;;;6290529;22;20338;-84
2023/01/26 00:19:54;;;;;;;25.40;15.90;;;8.40;83.10;;;;;;6291892;22;20006;-84
2023/01/26 00:22:20;;;;;;;24.92;15.73;;;8.40;83.10;;;;;;6293001;22;20003;-82
2023/01/26 00:24:45;;;;;;;24.45;15.98;;;8.40;83.10;;;;;;6294649;22;20007;-80
2023/01/26 00:27:11;;;;;;;24.30;15.88;;;8.40;83.20;;;;;;6291108;22;20426;-81
2023/01/26 00:29:36;;;;;;;24.30;15.20;;;8.40;83.10;;;;;;6290764;22;20041;-82
2023/01/26 00:32:02;;;;;;;24.90;15.68;;;8.40;83.10;;;;;;6289475;22;20004;-81
2023/01/26 00:34:27;;;;;;;23.67;15.82;;;8.40;83.20;;;;;;6288923;22;20003;-81
2023/01/26 00:36:53;;;;;;;24.75;16.17;;;8.40;83.20;;;;;;6289536;22;20007;-81
2023/01/26 00:39:18;;;;;;;24.77;15.57;;;8.40;83.20;;;;;;6292621;22;20009;-81
2023/01/26 00:44:44;;;;;;;24.02;15.57;;;8.40;83.10;;;;;;6191707;23;20001;-81
2023/01/26 00:47:11;;;;;;;24.67;15.70;;;8.40;83.20;;;;;;6262572;22;20030;-81
2023/01/26 00:49:37;;;;;;;26.67;16.55;;;8.40;83.20;;;;;;6291701;22;20137;-81
2023/01/26 00:52:03;;;;;;;25.48;16.17;;;8.40;83.10;;;;;;6291872;22;20003;-81
2023/01/26 00:54:30;;;;;;;23.35;15.15;;;8.40;83.20;;;;;;6288504;22;20525;-81
2023/01/26 00:56:56;;;;;;;24.73;15.43;;;8.40;83.10;;;;;;6288599;22;20037;-81
2023/01/26 00:59:22;;;;;;;25.63;15.43;;;8.40;83.10;;;;;;6288517;22;20007;-79
2023/01/26 01:01:48;;;;;;;24.25;15.73;;;8.40;83.10;;;;;;6288390;22;20007;-82
2023/01/26 01:04:14;;;;;;;23.27;14.57;;;8.50;83.20;;;;;;6289132;22;20037;-81
2023/01/26 01:06:40;;;;;;;25.98;16.60;;;8.40;83.10;;;;;;6290759;22;20000;-82
2023/01/26 01:09:06;;;;;;;25.27;16.45;;;8.40;83.20;;;;;;6299886;22;20000;-82
2023/01/26 01:11:31;;;;;;;24.65;15.68;;;8.50;83.30;;;;;;6298199;22;20063;-82
2023/01/26 01:13:57;;;;;;;23.23;15.18;;;8.40;83.20;;;;;;6325706;22;20082;-83
2023/01/26 01:16:22;;;;;;;24.80;15.23;;;8.40;83.30;;;;;;6297896;22;20004;-81
2023/01/26 01:18:53;;;;;;;25.00;15.60;;;8.40;83.20;;;;;;6288710;22;20094;-82
2023/01/26 01:21:19;;;;;;;24.27;15.55;;;8.40;83.20;;;;;;6289829;22;20030;-81
2023/01/26 01:23:45;;;;;;;25.90;15.90;;;8.40;83.20;;;;;;6288264;22;20003;-83
2023/01/26 01:26:11;;;;;;;24.98;15.50;;;8.40;83.10;;;;;;6300527;22;20003;-82
2023/01/26 01:28:37;;;;;;;23.15;15.38;;;8.40;83.10;;;;;;6296188;22;20000;-81
2023/01/26 01:31:09;;;;;;;23.02;14.63;;;8.40;83.20;;;;;;6323746;22;20026;-82
2023/01/26 01:33:47;;;;;;;24.88;15.88;;;8.40;83.20;;;;;;6300669;22;20020;-85
2023/01/26 01:36:15;;;;;;;24.95;15.52;;;8.50;83.30;;;;;;6303581;22;20007;-85
2023/01/26 01:38:41;;;;;;;23.50;15.05;;;8.40;83.80;;;;;;6305802;22;20032;-83
2023/01/26 01:41:08;;;;;;;25.45;16.27;;;8.40;83.30;;;;;;6305661;22;20053;-84
2023/01/26 01:43:34;;;;;;;25.88;16.23;;;8.40;83.30;;;;;;6305065;22;20030;-84
2023/01/26 01:46:02;;;;;;;23.40;15.00;;;8.40;83.20;;;;;;6302741;22;19999;-85
2023/01/26 01:48:36;;;;;;;23.83;15.63;;;8.40;83.30;;;;;;6303590;22;20007;-83
2023/01/26 01:51:11;;;;;;;25.88;16.17;;;8.40;83.20;;;;;;6302585;22;20090;-85
2023/01/26 01:53:39;;;;;;;24.00;15.38;;;8.40;83.30;;;;;;6301943;22;20007;-83
2023/01/26 01:56:10;;;;;;;25.80;16.42;;;8.40;83.20;;;;;;6300409;22;20003;-84
2023/01/26 01:58:40;;;;;;;23.70;15.35;;;8.40;83.30;;;;;;6302125;22;20003;-86
2023/01/26 02:01:06;;;;;;;24.75;15.57;;;8.40;83.20;;;;;;6331396;22;20008;-83
2023/01/26 02:03:33;;;;;;;23.75;15.32;;;8.40;83.30;;;;;;6300216;22;20011;-82
2023/01/26 02:06:07;;;;;;;24.15;15.95;;;8.40;83.20;;;;;;6299527;22;20339;-86
2023/01/26 02:08:37;;;;;;;24.38;15.40;;;8.40;83.30;;;;;;6298913;22;20055;-81
2023/01/26 02:11:08;;;;;;;23.45;15.45;;;8.40;83.30;;;;;;6298370;22;20003;-83
2023/01/26 02:13:35;;;;;;;24.58;15.32;;;8.40;83.20;;;;;;6298384;22;20003;-81
2023/01/26 02:16:00;;;;;;;25.70;15.82;;;8.40;83.20;;;;;;6296788;22;20003;-83
2023/01/26 02:18:27;;;;;;;25.60;16.25;;;8.40;83.70;;;;;;6296421;22;20018;-82
2023/01/26 02:20:57;;;;;;;25.70;15.88;;;8.50;83.40;;;;;;6329462;22;20082;-85
2023/01/26 02:23:41;;;;;;;23.63;15.07;;;8.40;83.30;;;;;;6298191;22;20037;-85
2023/01/26 02:26:11;;;;;;;22.27;14.60;;;8.40;83.30;;;;;;6305087;22;20011;-84
2023/01/26 02:28:38;;;;;;;25.85;16.08;;;8.40;83.20;;;;;;6305178;22;20006;-83
2023/01/26 02:31:05;;;;;;;24.80;15.27;;;8.40;83.30;;;;;;6305039;22;19995;-84
2023/01/26 02:33:32;;;;;;;25.40;16.17;;;8.40;83.30;;;;;;6304646;22;20006;-83
2023/01/26 02:35:57;;;;;;;25.05;15.77;;;8.40;83.30;;;;;;6303166;22;20398;-84
2023/01/26 02:38:28;;;;;;;23.92;15.15;;;8.40;83.30;;;;;;6303103;22;20036;-81
2023/01/26 02:41:02;;;;;;;26.90;16.13;;;8.40;83.40;;;;;;6302149;22;20010;-82
2023/01/26 02:43:27;;;;;;;24.20;15.20;;;8.40;83.30;;;;;;6302359;22;20137;-81
2023/01/26 02:45:54;;;;;;;24.38;14.93;;;8.40;83.30;;;;;;6300313;22;20391;-85
2023/01/26 02:51:05;;;;;;;24.50;15.70;;;8.40;83.30;;;;;;6328382;22;20029;-82
2023/01/26 02:53:31;;;;;;;24.42;15.50;;;8.40;83.30;;;;;;6299437;22;20448;-83
2023/01/26 02:55:56;;;;;;;23.20;15.35;;;8.40;83.40;;;;;;6298003;22;20010;-81
2023/01/26 02:58:22;;;;;;;24.20;15.45;;;8.40;83.30;;;;;;6297154;22;20003;-82
2023/01/26 03:00:47;;;;;;;24.25;15.52;;;8.40;83.30;;;;;;6299352;22;20002;-82
2023/01/26 03:03:23;;;;;;;23.90;15.23;;;8.40;83.30;;;;;;6300988;22;20015;-82
2023/01/26 03:05:48;;;;;;;23.67;14.88;;;8.40;83.20;;;;;;6296094;22;20007;-82
2023/01/26 03:08:14;;;;;;;22.75;14.20;;;8.40;83.40;;;;;;6295881;22;20003;-84
2023/01/26 03:10:40;;;;;;;24.83;15.30;;;8.40;83.40;;;;;;6296280;22;20000;-82
2023/01/26 03:13:05;;;;;;;22.90;14.30;;;8.40;83.30;;;;;;6295734;22;20000;-81
2023/01/26 03:15:41;;;;;;;23.42;14.63;;;8.40;83.30;;;;;;6295473;22;20013;-82
2023/01/26 03:29:11;;;;;;;24.67;15.13;;;8.40;83.30;;;;;;6325868;22;20014;-82
2023/01/26 03:31:36;;;;;;;22.17;14.40;;;8.40;83.40;;;;;;6292032;22;20000;-81
2023/01/26 03:34:02;;;;;;;23.98;14.57;;;8.40;83.30;;;;;;6293561;22;20000;-81
2023/01/26 03:36:27;;;;;;;24.00;15.52;;;8.40;83.40;;;;;;6292339;22;20082;-82
2023/01/26 03:38:53;;;;;;;24.45;15.35;;;8.40;83.30;;;;;;6292434;22;20341;-83
2023/01/26 03:57:43;;;;;;;24.33;14.55;;;8.40;83.30;;;;;;6318232;22;20057;-83
2023/01/26 04:00:09;;;;;;;26.05;16.05;;;8.40;83.40;;;;;;6318822;22;19999;-81
2023/01/26 04:08:20;;;;;;;23.55;14.23;;;8.40;83.40;;;;;;6319655;22;20010;-81
2023/01/26 04:10:46;;;;;;;24.08;15.32;;;8.40;83.40;;;;;;6289592;22;20005;-82
2023/01/26 04:21:34;;;;;;;23.05;14.80;;;8.40;83.40;;;;;;6318626;22;20030;-81
2023/01/26 04:24:01;;;;;;;23.60;14.80;;;8.40;83.40;;;;;;6289909;22;20015;-84
2023/01/26 04:26:35;;;;;;;24.52;14.90;;;8.40;83.50;;;;;;6298207;22;20049;-79
2023/01/26 04:29:07;;;;;;;23.48;14.35;;;8.30;83.40;;;;;;6288392;22;20053;-82
2023/01/26 04:31:33;;;;;;;23.10;14.43;;;8.30;83.40;;;;;;6290173;22;20085;-81
2023/01/26 04:34:00;;;;;;;22.33;14.07;;;8.30;83.40;;;;;;6288561;22;20370;-82
2023/01/26 04:36:25;;;;;;;23.23;14.32;;;8.30;83.40;;;;;;6286616;22;19990;-84
2023/01/26 04:38:51;;;;;;;23.13;14.55;;;8.30;83.40;;;;;;6288194;22;20003;-84
2023/01/26 04:41:16;;;;;;;24.40;15.27;;;8.30;83.40;;;;;;6290313;22;19996;-82
2023/01/26 04:43:42;;;;;;;23.05;14.40;;;8.40;83.40;;;;;;6294566;22;20035;-84
2023/01/26 04:46:08;;;;;;;22.75;14.57;;;8.30;83.40;;;;;;6285974;22;20007;-82
2023/01/26 04:48:34;;;;;;;22.83;14.05;;;8.30;83.40;;;;;;6287800;22;20441;-81
2023/01/26 04:51:02;;;;;;;22.00;13.90;;;8.30;83.30;;;;;;6289433;22;20461;-84
2023/01/26 04:53:28;;;;;;;24.63;15.52;;;8.40;83.40;;;;;;6288349;22;20003;-82
2023/01/26 04:55:54;;;;;;;23.58;14.98;;;8.40;83.40;;;;;;6297830;22;20486;-85
2023/01/26 04:58:20;;;;;;;23.17;14.65;;;8.30;83.30;;;;;;6295328;22;20030;-81
2023/01/26 05:00:51;;;;;;;22.23;13.57;;;8.40;83.40;;;;;;6294177;22;20007;-83
2023/01/26 05:03:16;;;;;;;23.60;14.00;;;8.40;83.50;;;;;;6303977;22;20021;-85
2023/01/26 05:05:42;;;;;;;23.83;14.93;;;8.40;83.40;;;;;;6302977;22;20003;-83
2023/01/26 05:08:07;;;;;;;24.08;14.93;;;8.30;83.40;;;;;;6302898;22;19995;-82
2023/01/26 05:10:33;;;;;;;23.52;14.18;;;8.40;83.50;;;;;;6303273;22;19998;-84
2023/01/26 05:12:58;;;;;;;22.42;14.50;;;8.40;83.50;;;;;;6292674;22;19999;-79
2023/01/26 05:15:24;;;;;;;21.65;13.55;;;8.30;83.40;;;;;;6285331;22;20011;-79
2023/01/26 05:17:50;;;;;;;23.17;14.57;;;8.30;83.40;;;;;;6303055;22;20035;-79
2023/01/26 05:20:16;;;;;;;23.90;14.73;;;8.40;83.30;;;;;;6283212;22;20026;-81
2023/01/26 05:22:42;;;;;;;22.15;14.25;;;8.30;83.30;;;;;;6281494;22;20011;-80
2023/01/26 05:25:08;;;;;;;23.08;14.77;;;8.30;83.20;;;;;;6276526;22;20511;-79
2023/01/26 05:27:34;;;;;;;23.63;14.32;;;8.30;83.40;;;;;;6284229;22;20007;-80
2023/01/26 05:29:59;;;;;;;24.23;15.38;;;8.30;83.30;;;;;;6280137;22;20505;-79
2023/01/26 05:32:27;;;;;;;23.08;15.05;;;8.30;83.20;;;;;;6271427;22;20445;-78
2023/01/26 05:34:52;;;;;;;23.30;14.43;;;8.30;83.30;;;;;;6280144;22;20927;-82
2023/01/26 05:37:18;;;;;;;23.27;14.27;;;8.30;83.20;;;;;;6286797;22;20007;-78
2023/01/26 05:39:44;;;;;;;25.17;15.23;;;8.30;83.20;;;;;;6279587;22;20015;-83
2023/01/26 05:42:12;;;;;;;25.00;15.38;;;8.40;83.20;;;;;;6280261;22;20010;-80
2023/01/26 05:44:38;;;;;;;22.88;14.73;;;8.30;83.30;;;;;;6284166;22;19999;-80
2023/01/26 05:47:04;;;;;;;24.35;14.60;;;8.30;83.20;;;;;;6281273;22;20413;-79
2023/01/26 05:49:30;;;;;;;24.60;15.57;;;8.30;83.20;;;;;;6285050;22;20338;-82
2023/01/26 05:51:56;;;;;;;23.58;14.82;;;8.30;83.20;;;;;;6291672;22;20003;-82
2023/01/26 05:54:22;;;;;;;24.05;15.10;;;8.40;83.30;;;;;;6292718;22;20090;-84
2023/01/26 05:56:47;;;;;;;24.48;14.93;;;8.30;83.20;;;;;;6290863;22;20003;-82
2023/01/26 05:59:13;;;;;;;22.58;14.13;;;8.30;83.10;;;;;;6290254;22;20018;-81
2023/01/26 06:01:39;;;;;;;25.13;15.43;;;8.30;83.20;;;;;;6282878;22;20007;-79
2023/01/26 06:04:04;;;;;;;23.05;14.82;;;8.30;83.20;;;;;;6284436;22;20011;-78
2023/01/26 06:06:30;;;;;;;23.45;14.85;;;8.40;83.30;;;;;;6284360;22;20000;-78
2023/01/26 06:08:56;;;;;;;23.25;14.57;;;8.30;83.30;;;;;;6280434;22;20082;-80
2023/01/26 06:11:22;;;;;;;23.90;14.45;;;8.30;83.20;;;;;;6285257;22;20003;-82
2023/01/26 06:13:48;;;;;;;24.67;16.02;;;8.40;83.20;;;;;;6286592;22;20092;-83
2023/01/26 06:16:13;;;;;;;22.42;13.88;;;8.30;83.20;;;;;;6280079;22;20003;-78
2023/01/26 06:18:39;;;;;;;25.35;13.85;;;8.30;83.20;;;;;;6285473;22;20087;-81
2023/01/26 06:21:05;;;;;;;24.10;14.63;;;8.30;83.20;;;;;;6282038;22;20556;-79
2023/01/26 06:23:30;;;;;;;23.48;14.88;;;8.30;83.20;;;;;;6287431;22;20003;-80
2023/01/26 06:26:00;;;;;;;22.92;14.65;;;8.30;83.10;;;;;;6285840;22;20048;-80
2023/01/26 06:28:26;;;;;;;25.33;16.00;;;8.30;83.20;;;;;;6274997;22;20014;-76
2023/01/26 06:30:57;;;;;;;24.25;14.88;;;8.30;83.10;;;;;;6309870;22;19999;-78
2023/01/26 06:33:23;;;;;;;23.63;14.98;;;8.30;83.10;;;;;;6283100;22;20025;-79
2023/01/26 06:35:48;;;;;;;23.13;14.75;;;8.20;83.20;;;;;;6282907;22;20497;-81
2023/01/26 06:38:14;;;;;;;24.80;14.68;;;8.40;83.30;;;;;;6281796;22;20007;-79
2023/01/26 06:40:39;;;;;;;22.67;14.18;;;8.30;83.10;;;;;;6282664;22;20007;-78
2023/01/26 06:43:05;;;;;;;24.58;15.40;;;8.30;83.10;;;;;;6282322;22;20003;-79
2023/01/26 06:45:31;;;;;;;25.40;15.48;;;8.30;83.10;;;;;;6280880;22;20012;-79
2023/01/26 06:47:56;;;;;;;23.85;14.85;;;8.30;83.10;;;;;;6306027;22;20025;-81
2023/01/26 06:50:30;;;;;;;23.45;14.68;;;8.30;83.10;;;;;;6308346;22;19999;-77
2023/01/26 06:52:58;;;;;;;26.00;15.48;;;8.30;83.20;;;;;;6282671;22;19995;-79
2023/01/26 06:55:34;;;;;;;24.73;14.90;;;8.30;83.10;;;;;;6303809;22;20003;-77
2023/01/26 06:57:59;;;;;;;22.05;13.93;;;8.30;83.20;;;;;;6282886;22;20445;-80
2023/01/26 07:00:25;;;;;;;24.45;15.02;;;8.30;83.20;;;;;;6282006;22;20014;-81
2023/01/26 07:02:50;;;;;;;23.20;14.77;;;8.30;83.10;;;;;;6279548;22;20623;-79
2023/01/26 07:05:16;;;;;;;23.30;14.45;;;8.40;83.20;;;;;;6282214;22;20003;-79
2023/01/26 07:07:41;;;;;;;24.50;14.63;;;8.30;83.10;;;;;;6281899;22;20434;-82
2023/01/26 07:10:08;;;;;;;23.17;14.27;;;8.30;83.20;;;;;;6285520;22;20082;-81
2023/01/26 07:12:41;;;;;;;23.00;14.38;;;8.30;83.20;;;;;;6282037;22;20003;-79
2023/01/26 07:15:08;;;;;;;22.52;13.43;;;8.30;83.20;;;;;;6290832;22;20007;-79
2023/01/26 07:17:34;;;;;;;23.77;13.90;;;8.40;83.20;;;;;;6311465;22;20007;-80
2023/01/26 07:19:59;;;;;;;25.98;15.02;;;8.30;83.30;;;;;;6309056;22;20015;-78
2023/01/26 07:22:25;;;;;;;23.27;14.38;;;8.30;83.20;;;;;;6281342;22;20011;-82
2023/01/26 07:24:50;;;;;;;23.60;14.32;;;8.30;83.20;;;;;;6281193;22;20007;-81
2023/01/26 07:27:16;;;;;;;23.48;14.57;;;8.30;83.20;;;;;;6282631;22;20010;-80
2023/01/26 07:29:41;;;;;;;21.70;14.15;;;8.30;83.20;;;;;;6285123;22;19999;-81
2023/01/26 07:32:07;;;;;;;23.85;15.10;;;8.30;83.20;;;;;;6280081;22;19996;-81
2023/01/26 07:34:32;;;;;;;23.75;14.52;;;8.30;83.20;;;;;;6280873;22;20435;-78
2023/01/26 07:36:58;;;;;;;23.20;14.73;;;8.30;83.20;;;;;;6280792;22;20073;-80
2023/01/26 07:39:23;;;;;;;21.77;14.18;;;8.40;83.30;;;;;;6290720;22;20018;-82
2023/01/26 07:41:50;;;;;;;22.95;15.02;;;8.30;83.20;;;;;;6283078;22;20003;-80
2023/01/26 07:44:15;;;;;;;23.00;14.10;;;8.30;83.20;;;;;;6278588;22;20030;-79
2023/01/26 07:46:41;;;;;;;22.83;14.07;;;8.30;83.20;;;;;;6279679;22;20604;-81
2023/01/26 07:49:06;;;;;;;22.65;14.18;;;8.30;83.20;;;;;;6290162;22;20022;-83
2023/01/26 07:51:32;;;;;;;23.13;14.30;;;8.30;83.20;;;;;;6286370;22;20023;-82
2023/01/26 07:53:58;;;;;;;22.40;13.93;;;8.30;83.20;;;;;;6283717;22;20032;-84
2023/01/26 07:56:23;;;;;;;21.67;13.82;;;8.30;83.20;;;;;;6284962;22;20017;-82
2023/01/26 07:58:50;;;;;;;21.65;14.10;;;8.30;83.20;;;;;;6280022;22;20030;-81
2023/01/26 08:01:16;;;;;;;22.25;13.38;;;8.30;83.10;;;;;;6280320;22;20007;-81
2023/01/26 08:03:44;;;;;;;21.88;14.18;;;8.30;83.10;;;;;;6279687;22;20492;-79
2023/01/26 08:06:10;;;;;;;23.30;14.43;;;8.30;83.10;;;;;;6286646;22;20007;-80
2023/01/26 08:08:38;;;;;;;22.75;14.27;;;8.30;83.20;;;;;;6284352;22;20006;-79
2023/01/26 08:11:04;;;;;;;24.35;14.23;;;8.30;83.20;;;;;;6280624;22;20090;-78
2023/01/26 08:13:30;;;;;;;23.10;14.50;;;8.30;83.20;;;;;;6279606;22;20446;-80
2023/01/26 08:16:04;;;;;;;23.08;14.43;;;8.30;83.10;;;;;;6284703;22;20007;-81
2023/01/26 08:18:30;;;;;;;22.08;13.52;;;8.30;83.20;;;;;;6313872;22;20007;-80
2023/01/26 08:20:55;;;;;;;22.60;14.30;;;8.30;83.10;;;;;;6281470;22;20338;-80
2023/01/26 08:23:21;;;;;;;22.27;14.07;;;8.30;83.20;;;;;;6287160;22;20007;-79
2023/01/26 08:25:47;;;;;;;22.00;14.25;;;8.30;83.10;;;;;;6290191;22;20007;-81
2023/01/26 08:28:12;;;;;;;23.67;14.80;;;8.30;83.10;;;;;;6289775;22;20026;-80
2023/01/26 08:30:38;;;;;;;23.70;14.23;;;8.30;83.10;;;;;;6289195;22;19999;-81
2023/01/26 08:33:04;;;;;;;22.80;14.35;;;8.30;83.10;;;;;;6288916;22;20076;-79
2023/01/26 08:35:31;;;;;;;21.75;13.85;;;8.30;83.10;;;;;;6287774;22;20003;-80
2023/01/26 08:37:56;;;;;;;23.38;14.48;;;8.30;83.20;;;;;;6287400;22;20003;-80
2023/01/26 08:40:23;;;;;;;22.65;14.75;;;8.30;83.10;;;;;;6287926;22;20004;-81
2023/01/26 08:42:49;;;;;;;21.98;13.38;;;8.30;83.20;;;;;;6286141;22;20039;-81
2023/01/26 08:45:15;;;;;;;22.65;14.25;;;8.30;83.20;;;;;;6285943;22;20022;-80
2023/01/26 08:47:40;;;;;;;21.20;13.40;;;8.30;83.10;;;;;;6285292;22;20004;-81
2023/01/26 08:50:06;;;;;;;24.08;14.68;;;8.30;83.20;;;;;;6285409;22;20003;-80
2023/01/26 08:52:32;;;;;;;24.67;14.93;;;8.30;83.20;;;;;;6284922;22;20058;-80
2023/01/26 08:54:57;;;;;;;22.90;13.98;;;8.30;83.20;;;;;;6284482;22;20018;-81
2023/01/26 08:57:23;;;;;;;23.02;14.25;;;8.30;83.10;;;;;;6284873;22;20003;-81
2023/01/26 08:59:48;;;;;;;22.23;14.05;;;8.30;83.10;;;;;;6314083;22;20095;-81
2023/01/26 09:02:14;;;;;;;23.67;13.93;;;8.30;83.20;;;;;;6283363;22;20026;-80
2023/01/26 09:04:39;;;;;;;22.05;13.82;;;8.40;83.10;;;;;;6279298;22;20057;-81
2023/01/26 09:07:05;;;;;;;23.55;14.88;;;8.40;83.10;;;;;;6283227;22;20329;-79
2023/01/26 09:09:30;;;;;;;21.73;13.55;;;8.30;83.10;;;;;;6283463;22;20051;-81
2023/01/26 09:11:56;;;;;;;23.92;14.27;;;8.30;83.10;;;;;;6287208;22;19999;-81
2023/01/26 09:14:22;;;;;;;24.40;14.93;;;8.30;83.10;;;;;;6290008;22;20010;-81
2023/01/26 09:16:48;;;;;;;23.73;14.65;;;8.30;83.20;;;;;;6288611;22;19999;-83
2023/01/26 09:19:14;;;;;;;23.38;14.68;;;8.30;83.20;;;;;;6288410;22;20014;-81
2023/01/26 09:21:39;;;;;;;21.15;14.18;;;8.30;83.20;;;;;;6289070;22;19999;-82
2023/01/26 09:24:05;;;;;;;22.27;13.52;;;8.30;83.20;;;;;;6288130;22;20003;-83
2023/01/26 09:26:31;;;;;;;23.75;14.90;;;8.30;83.20;;;;;;6286498;22;20508;-81
2023/01/26 09:28:56;;;;;;;21.77;13.55;;;8.30;83.10;;;;;;6290153;22;20003;-83
2023/01/26 09:31:22;;;;;;;22.83;14.30;;;8.30;83.20;;;;;;6288265;22;20390;-81
2023/01/26 09:33:49;;;;;;;22.77;14.23;;;8.30;83.20;;;;;;6286795;22;19999;-82
2023/01/26 09:36:14;;;;;;;23.60;14.40;;;8.30;83.10;;;;;;6285215;22;20018;-81
2023/01/26 09:38:40;;;;;;;22.45;13.98;;;8.30;83.20;;;;;;6285262;22;20003;-82
2023/01/26 09:41:12;;;;;;;21.27;13.13;;;8.40;83.30;;;;;;6285306;22;20121;-82
2023/01/26 09:43:46;;;;;;;22.10;13.48;;;8.30;83.20;;;;;;6285245;22;20009;-80
2023/01/26 09:46:31;;;;;;;21.52;12.88;;;8.30;83.20;;;;;;6278180;22;20007;-81
2023/01/26 09:49:01;;;;;;;21.20;13.57;;;8.20;83.20;;;;;;6282652;22;20002;-80
2023/01/26 09:51:37;;;;;;;21.08;13.15;;;8.20;83.20;;;;;;6285319;22;20003;-81
2023/01/26 09:54:11;;;;;;;21.38;13.23;;;8.30;83.30;;;;;;6285701;22;20086;-78
2023/01/26 09:56:38;;;;;;;21.23;13.50;;;8.30;83.20;;;;;;6284357;22;20026;-81
2023/01/26 09:59:35;;;;;;;21.73;13.43;;;8.30;83.20;;;;;;6284872;22;20171;-79
2023/01/26 10:02:10;;;;;;;23.13;13.77;;;8.30;83.20;;;;;;6280138;22;20590;-83
2023/01/26 10:04:38;;;;;;;20.45;12.90;;;8.30;83.20;;;;;;6284183;22;20019;-80
2023/01/26 10:07:09;;;;;;;23.63;14.00;;;8.30;83.20;;;;;;6282958;22;20003;-81
2023/01/26 10:09:37;;;;;;;21.20;12.98;;;8.30;83.20;;;;;;6283517;22;19999;-80
2023/01/26 10:12:09;;;;;;;21.95;12.98;;;8.30;83.20;;;;;;6282752;22;20003;-84
2023/01/26 10:14:39;;;;;;;21.50;13.00;;;8.30;83.20;;;;;;6282540;22;20004;-81
2023/01/26 10:17:18;;;;;;;21.38;13.57;;;8.30;83.20;;;;;;6283024;22;20003;-80
2023/01/26 10:20:28;;;;;;;20.50;12.75;;;8.30;83.20;;;;;;6283210;22;20010;-80
2023/01/26 10:23:05;;;;;;;22.33;13.35;;;8.30;83.20;;;;;;6243855;22;20031;-80
2023/01/26 10:25:40;;;;;;;21.00;12.85;;;8.30;83.20;;;;;;6281315;22;20007;-78
2023/01/26 10:28:20;;;;;;;21.05;13.27;;;8.30;83.20;;;;;;6282167;22;20033;-80
2023/01/26 10:30:47;;;;;;;20.75;12.48;;;8.30;83.20;;;;;;6282448;22;20003;-80
2023/01/26 10:33:32;;;;;;;22.23;13.45;;;8.30;83.20;;;;;;6310928;22;20007;-78
2023/01/26 10:35:59;;;;;;;20.77;12.80;;;8.30;83.20;;;;;;6282014;22;20342;-83
2023/01/26 10:38:34;;;;;;;20.33;12.20;;;8.30;83.20;;;;;;6289011;22;20360;-81
2023/01/26 10:41:05;;;;;;;20.40;12.32;;;8.30;83.70;;;;;;6288403;22;20029;-83
2023/01/26 10:43:40;;;;;;;20.90;12.93;;;8.30;83.20;;;;;;6288829;22;20066;-79
2023/01/26 10:46:20;;;;;;;20.58;12.90;;;8.30;83.20;;;;;;6282064;22;20082;-82
2023/01/26 10:48:51;;;;;;;20.75;13.07;;;8.20;83.10;;;;;;6282356;22;19996;-80
2023/01/26 10:51:29;;;;;;;21.50;13.23;;;8.30;83.10;;;;;;6281219;22;20003;-80
2023/01/26 10:54:18;;;;;;;20.05;12.68;;;8.30;83.20;;;;;;6280845;22;20090;-80
2023/01/26 10:56:45;;;;;;;20.35;12.93;;;8.30;83.20;;;;;;6279582;22;20456;-84
2023/01/26 10:59:19;;;;;;;21.65;12.88;;;8.30;83.30;;;;;;6284114;22;20007;-81
2023/01/26 11:01:57;;;;;;;19.65;12.40;;;8.30;83.10;;;;;;6282832;22;20011;-83
2023/01/26 11:04:24;;;;;;;19.17;11.82;;;8.30;83.20;;;;;;6310620;22;20098;-81
2023/01/26 11:06:50;;;;;;;18.50;11.75;;;8.30;83.30;;;;;;6282865;22;20029;-82
2023/01/26 11:09:30;;;;;;;20.55;12.88;;;8.20;83.20;;;;;;6280784;22;20010;-82
2023/01/26 11:12:01;;;;;;;21.65;12.95;;;8.30;83.20;;;;;;6279848;22;20010;-82
2023/01/26 11:14:28;;;;;;;20.52;12.52;;;8.30;83.20;;;;;;6280275;22;20003;-83
2023/01/26 11:17:00;;;;;;;19.75;12.35;;;8.30;83.20;;;;;;6279161;22;20003;-81
2023/01/26 11:19:38;;;;;;;;;;;8.30;83.20;;;;;;6289265;22;20007;-83
2023/01/26 11:22:28;;;;;;;20.02;12.45;;;8.30;83.20;;;;;;6286318;22;19902;-81
2023/01/26 11:25:06;;;;;;;19.90;12.43;;;8.30;83.20;;;;;;6284427;22;20003;-80
2023/01/26 11:28:10;;;;;;;21.38;12.82;;;8.30;83.20;;;;;;6279920;22;20538;-78
2023/01/26 11:31:14;;;;;;;19.00;11.50;;;8.30;83.20;;;;;;6206916;22;19995;-82
2023/01/26 11:33:52;;;;;;;19.05;11.38;;;8.30;83.20;;;;;;6129445;23;20044;-80
2023/01/26 11:36:20;;;;;;;18.38;11.10;;;8.30;83.20;;;;;;6269130;22;20007;-78
2023/01/26 11:39:04;;;;;;;18.52;11.68;;;8.30;83.20;;;;;;6281429;22;20011;-82
2023/01/26 11:42:04;;;;;;;19.67;11.60;;;8.30;83.20;;;;;;6280427;22;20058;-79
2023/01/26 11:44:48;;;;;;;19.00;11.68;;;8.30;83.20;;;;;;6286530;22;20524;-81
2023/01/26 11:47:37;;;;;;;19.50;11.88;;;8.30;83.20;;;;;;6284765;22;20010;-81
2023/01/26 11:50:29;;;;;;;18.13;11.60;;;8.30;83.20;;;;;;6291095;22;20010;-79
2023/01/26 11:53:37;;;;;;;18.52;11.52;;;8.30;83.20;;;;;;6290069;22;20067;-80
2023/01/26 11:56:18;;;;;;;21.30;12.40;;;8.30;83.20;;;;;;6258658;22;20000;-81
2023/01/26 11:58:59;;;;;;;19.50;11.03;;;8.20;83.10;;;;;;6289668;22;20019;-82
2023/01/26 12:01:33;;;;;;;20.85;12.25;;;8.30;83.20;;;;;;6288282;22;20254;-84
2023/01/26 12:03:59;;;;;;;18.90;12.02;;;8.30;83.20;;;;;;6282289;22;20445;-80
2023/01/26 12:06:42;;;;;;;17.50;10.93;;;8.30;83.20;;;;;;6282625;22;20054;-83
2023/01/26 12:09:22;;;;;;;20.75;12.77;;;8.30;83.20;;;;;;6281818;22;19999;-83
2023/01/26 12:12:07;;;;;;;19.67;12.27;;;8.30;83.20;;;;;;6281766;22;20003;-82
2023/01/26 12:14:58;;;;;;;19.40;11.90;;;8.30;83.20;;;;;;6280525;22;20054;-84
2023/01/26 12:17:32;;;;;;;;;;;8.30;83.20;;;;;;6308349;22;20136;-78
2023/01/26 12:20:29;;;;;;;19.08;11.88;;;8.30;83.20;;;;;;6280095;22;19926;-82
2023/01/26 12:22:59;;;;;;;18.42;11.57;;;8.30;83.20;;;;;;6282302;22;20018;-82
2023/01/26 12:25:39;;;;;;;18.77;11.80;;;8.30;83.20;;;;;;6280291;22;20011;-83
2023/01/26 12:28:11;;;;;;;18.65;11.45;;;8.30;83.10;;;;;;6279142;22;20000;-83
2023/01/26 12:30:59;;;;;;;17.85;10.73;;;8.30;83.10;;;;;;6279915;22;20259;-81
2023/01/26 12:33:25;;;;;;;19.17;11.48;;;8.30;83.10;;;;;;6279679;22;20380;-83
2023/01/26 12:35:52;;;;;;;18.15;11.65;;;8.30;83.20;;;;;;6254181;22;20023;-81
2023/01/26 12:38:48;;;;;;;19.02;11.90;;;8.30;83.20;;;;;;6281383;22;20398;-80
2023/01/26 12:41:25;;;;;;;17.33;10.90;;;8.30;83.20;;;;;;6310162;22;20025;-84
2023/01/26 12:44:07;;;;;;;18.45;10.85;;;8.30;83.10;;;;;;6283523;22;20007;-82
2023/01/26 12:46:36;;;;;;;18.30;11.13;;;8.30;83.10;;;;;;6280497;22;20022;-82
2023/01/26 12:49:07;;;;;;;19.48;12.20;;;8.30;83.10;;;;;;6309791;22;20050;-83
2023/01/26 12:51:39;;;;;;;19.08;11.85;;;8.30;83.10;;;;;;6284030;22;20391;-81
2023/01/26 12:54:20;;;;;;;19.45;11.73;;;8.30;83.10;;;;;;6281829;22;20011;-81
2023/01/26 12:56:51;;;;;;;18.80;11.45;;;8.30;83.10;;;;;;6284527;22;20010;-79
2023/01/26 12:59:28;;;;;;;18.07;10.77;;;8.30;83.20;;;;;;6283951;22;20341;-82
2023/01/26 13:01:53;;;;;;;17.83;11.10;;;8.30;83.10;;;;;;6283058;22;20323;-81
2023/01/26 13:04:19;;;;;;;19.00;11.68;;;8.30;83.10;;;;;;6307898;22;20000;-79
2023/01/26 13:07:01;;;;;;;17.83;10.85;;;8.30;83.10;;;;;;6281085;22;20100;-81
2023/01/26 13:09:27;;;;;;;16.80;10.73;;;8.30;83.10;;;;;;6279770;22;20007;-79
2023/01/26 13:11:55;;;;;;;18.90;11.68;;;8.30;83.10;;;;;;6279904;22;20030;-84
2023/01/26 13:14:32;;;;;;;18.40;10.82;;;8.30;83.20;;;;;;6279300;22;20426;-83
2023/01/26 13:17:17;;;;;;;18.58;11.43;;;8.30;83.10;;;;;;6279121;22;20341;-81
2023/01/26 13:19:43;;;;;;;17.92;10.60;;;8.30;83.10;;;;;;6280574;22;20003;-83
2023/01/26 13:22:17;;;;;;;17.55;10.70;;;8.30;83.20;;;;;;6282338;22;20003;-81
2023/01/26 13:25:23;;;;;;;18.02;10.50;;;8.30;83.10;;;;;;6280178;22;20086;-82
2023/01/26 13:28:01;;;;;;;16.25;9.68;;;8.30;83.10;;;;;;6276843;22;20003;-81
2023/01/26 13:30:46;;;;;;;16.95;10.50;;;8.30;83.10;;;;;;6280244;22;20007;-82
2023/01/26 13:33:21;;;;;;;18.08;10.70;;;8.30;83.20;;;;;;6280656;22;20031;-82
2023/01/26 13:35:48;;;;;;;17.77;11.20;;;8.30;83.10;;;;;;6280088;22;20029;-79
2023/01/26 13:38:33;;;;;;;15.48;9.27;;;8.30;83.20;;;;;;6285890;22;20449;-83